sensor_id;sensor_type;location;lat;lon;timestamp;pressure;altitude;pressure_sealevel;temperature;humidity
7105;BME280;3594;42.152;24.714;2022-09-16T00:00:10;-24390.53;;;20.62;nan
7105;BME280;3594;42.152;24.714;2022-09-16T00:02:36;-24381.22;;;20.28;nan
7105;BME280;3594;42.152;24.714;2022-09-16T00:05:02;-24378.19;;;20.17;nan
7105;BME280;3594;42.152;24.714;2022-09-16T00:07:28;-24389.28;;;20.58;nan
7105;BME280;3594;42.152;24.714;2022-09-16T00:09:54;-24377.75;;;20.16;nan
7105;BME280;3594;42.152;24.714;2022-09-16T00:12:19;-24377.91;;;20.16;nan
7105;BME280;3594;42.152;24.714;2022-09-16T00:14:45;-24386.38;;;20.47;nan
7105;BME280;3594;42.152;24.714;2022-09-16T00:17:10;-24383.59;;;20.37;nan
7105;BME280;3594;42.152;24.714;2022-09-16T00:19:36;-24375.41;;;20.07;nan
7105;BME280;3594;42.152;24.714;2022-09-16T00:22:01;-24380.13;;;20.24;nan
7105;BME280;3594;42.152;24.714;2022-09-16T00:24:50;-24370.13;;;19.88;nan
7105;BME280;3594;42.152;24.714;2022-09-16T00:27:16;-24372.91;;;19.98;nan
7105;BME280;3594;42.152;24.714;2022-09-16T00:29:41;-24367.06;;;19.77;nan
7105;BME280;3594;42.152;24.714;2022-09-16T00:32:06;-24358.16;;;19.45;nan
7105;BME280;3594;42.152;24.714;2022-09-16T00:34:32;-24366.66;;;19.75;nan
7105;BME280;3594;42.152;24.714;2022-09-16T00:36:57;-24369.16;;;19.84;nan
7105;BME280;3594;42.152;24.714;2022-09-16T00:39:23;-24369.44;;;19.85;nan
7105;BME280;3594;42.152;24.714;2022-09-16T00:41:49;-24370.25;;;19.89;nan
7105;BME280;3594;42.152;24.714;2022-09-16T00:51:00;-24374.28;;;20.03;nan
7105;BME280;3594;42.152;24.714;2022-09-16T00:53:26;-24364.56;;;19.68;nan
7105;BME280;3594;42.152;24.714;2022-09-16T00:55:53;-24368.31;;;19.81;nan
7105;BME280;3594;42.152;24.714;2022-09-16T01:01:18;-24366.94;;;19.76;nan
7105;BME280;3594;42.152;24.714;2022-09-16T01:03:48;-24355.81;;;19.36;nan
7105;BME280;3594;42.152;24.714;2022-09-16T01:06:15;-24356.50;;;19.38;nan
7105;BME280;3594;42.152;24.714;2022-09-16T01:08:42;-24366.50;;;19.75;nan
7105;BME280;3594;42.152;24.714;2022-09-16T01:11:09;-24371.09;;;19.92;nan
7105;BME280;3594;42.152;24.714;2022-09-16T01:13:35;-24371.94;;;19.95;nan
7105;BME280;3594;42.152;24.714;2022-09-16T01:16:25;-24368.47;;;19.82;nan
7105;BME280;3594;42.152;24.714;2022-09-16T01:19:05;-24356.34;;;19.38;nan
7105;BME280;3594;42.152;24.714;2022-09-16T01:21:50;-24370.53;;;19.90;nan
7105;BME280;3594;42.152;24.714;2022-09-16T01:27:29;-24370.97;;;19.91;nan
7105;BME280;3594;42.152;24.714;2022-09-16T01:33:03;-24365.41;;;19.71;nan
7105;BME280;3594;42.152;24.714;2022-09-16T01:38:36;-24359.97;;;19.51;nan
7105;BME280;3594;42.152;24.714;2022-09-16T01:41:48;-24359.41;;;19.49;nan
7105;BME280;3594;42.152;24.714;2022-09-16T01:47:25;-24357.75;;;19.43;nan
7105;BME280;3594;42.152;24.714;2022-09-16T01:49:56;-24358.16;;;19.45;nan
7105;BME280;3594;42.152;24.714;2022-09-16T01:55:05;-24348.16;;;19.08;nan
7105;BME280;3594;42.152;24.714;2022-09-16T02:00:58;-24357.34;;;19.41;nan
7105;BME280;3594;42.152;24.714;2022-09-16T02:03:29;-24349.53;;;19.13;nan
7105;BME280;3594;42.152;24.714;2022-09-16T02:06:02;-24351.75;;;19.21;nan
7105;BME280;3594;42.152;24.714;2022-09-16T02:08:36;-24361.09;;;19.55;nan
7105;BME280;3594;42.152;24.714;2022-09-16T02:11:07;-24350.09;;;19.15;nan
7105;BME280;3594;42.152;24.714;2022-09-16T02:13:36;-24366.09;;;19.73;nan
7105;BME280;3594;42.152;24.714;2022-09-16T02:22:40;-24352.03;;;19.22;nan
7105;BME280;3594;42.152;24.714;2022-09-16T02:25:21;-24353.84;;;19.29;nan
7105;BME280;3594;42.152;24.714;2022-09-16T02:27:48;-24354.81;;;19.32;nan
7105;BME280;3594;42.152;24.714;2022-09-16T02:30:18;-24350.09;;;19.15;nan
7105;BME280;3594;42.152;24.714;2022-09-16T02:32:47;-24346.91;;;19.04;nan
7105;BME280;3594;42.152;24.714;2022-09-16T02:35:19;-24345.38;;;18.98;nan
7105;BME280;3594;42.152;24.714;2022-09-16T02:37:52;-24328.38;;;18.36;nan
7105;BME280;3594;42.152;24.714;2022-09-16T02:40:28;-24326.00;;;18.28;nan
7105;BME280;3594;42.152;24.714;2022-09-16T02:42:57;-24333.53;;;18.55;nan
7105;BME280;3594;42.152;24.714;2022-09-16T02:45:27;-24321.41;;;18.11;nan
7105;BME280;3594;42.152;24.714;2022-09-16T02:48:12;-24325.16;;;18.25;nan
7105;BME280;3594;42.152;24.714;2022-09-16T02:50:40;-24333.53;;;18.55;nan
7105;BME280;3594;42.152;24.714;2022-09-16T02:58:10;-24326.41;;;18.29;nan
7105;BME280;3594;42.152;24.714;2022-09-16T03:00:44;-24321.25;;;18.10;nan
7105;BME280;3594;42.152;24.714;2022-09-16T03:03:11;-24316.66;;;17.94;nan
7105;BME280;3594;42.152;24.714;2022-09-16T03:08:28;-24323.78;;;18.20;nan
7105;BME280;3594;42.152;24.714;2022-09-16T03:10:55;-24320.16;;;18.06;nan
7105;BME280;3594;42.152;24.714;2022-09-16T03:22:20;-24328.09;;;18.35;nan
7105;BME280;3594;42.152;24.714;2022-09-16T03:25:06;-24330.03;;;18.42;nan
7105;BME280;3594;42.152;24.714;2022-09-16T03:27:51;-24320.72;;;18.08;nan
7105;BME280;3594;42.152;24.714;2022-09-16T03:36:33;-24319.19;;;18.03;nan
7105;BME280;3594;42.152;24.714;2022-09-16T03:39:22;-24331.00;;;18.46;nan
7105;BME280;3594;42.152;24.714;2022-09-16T03:41:48;-24330.19;;;18.43;nan
7105;BME280;3594;42.152;24.714;2022-09-16T03:44:13;-24320.72;;;18.08;nan
7105;BME280;3594;42.152;24.714;2022-09-16T03:46:39;-24340.22;;;18.79;nan
7105;BME280;3594;42.152;24.714;2022-09-16T03:49:14;-24336.19;;;18.65;nan
7105;BME280;3594;42.152;24.714;2022-09-16T03:51:45;-24336.72;;;18.67;nan
7105;BME280;3594;42.152;24.714;2022-09-16T03:54:11;-24323.78;;;18.20;nan
7105;BME280;3594;42.152;24.714;2022-09-16T03:56:36;-24326.97;;;18.31;nan
7105;BME280;3594;42.152;24.714;2022-09-16T03:59:02;-24327.69;;;18.34;nan
7105;BME280;3594;42.152;24.714;2022-09-16T04:01:27;-24329.63;;;18.41;nan
7105;BME280;3594;42.152;24.714;2022-09-16T04:03:53;-24340.78;;;18.81;nan
7105;BME280;3594;42.152;24.714;2022-09-16T04:06:19;-24330.03;;;18.42;nan
7105;BME280;3594;42.152;24.714;2022-09-16T04:08:44;-24332.41;;;18.51;nan
7105;BME280;3594;42.152;24.714;2022-09-16T04:11:10;-24335.19;;;18.61;nan
7105;BME280;3594;42.152;24.714;2022-09-16T04:13:35;-24339.94;;;18.78;nan
7105;BME280;3594;42.152;24.714;2022-09-16T04:16:02;-24335.19;;;18.61;nan
7105;BME280;3594;42.152;24.714;2022-09-16T04:18:32;-24331.16;;;18.46;nan
7105;BME280;3594;42.152;24.714;2022-09-16T05:01:33;-24393.19;;;20.72;nan
7105;BME280;3594;42.152;24.714;2022-09-16T05:04:17;-24399.28;;;20.94;nan
7105;BME280;3594;42.152;24.714;2022-09-16T05:06:42;-24392.91;;;20.71;nan
7105;BME280;3594;42.152;24.714;2022-09-16T05:09:10;-24365.25;;;19.70;nan
7105;BME280;3594;42.152;24.714;2022-09-16T05:11:38;-24374.00;;;20.02;nan
7105;BME280;3594;42.152;24.714;2022-09-16T05:14:06;-24369.00;;;19.84;nan
7105;BME280;3594;42.152;24.714;2022-09-16T05:16:32;-24384.03;;;20.39;nan
7105;BME280;3594;42.152;24.714;2022-09-16T05:18:58;-24394.41;;;20.77;nan
7105;BME280;3594;42.152;24.714;2022-09-16T05:21:25;-24396.78;;;20.85;nan
7105;BME280;3594;42.152;24.714;2022-09-16T05:23:52;-24397.06;;;20.86;nan
7105;BME280;3594;42.152;24.714;2022-09-16T05:26:21;-24413.84;;;21.47;nan
7105;BME280;3594;42.152;24.714;2022-09-16T05:28:47;-24425.91;;;21.91;nan
7105;BME280;3594;42.152;24.714;2022-09-16T05:31:20;-24423.81;;;21.84;nan
7105;BME280;3594;42.152;24.714;2022-09-16T05:34:31;-24423.41;;;21.82;nan
7105;BME280;3594;42.152;24.714;2022-09-16T05:36:34;-24415.91;;;21.55;nan
7105;BME280;3594;42.152;24.714;2022-09-16T05:39:02;-24431.16;;;22.11;nan
7105;BME280;3594;42.152;24.714;2022-09-16T05:41:27;-24432.25;;;22.15;nan
7105;BME280;3594;42.152;24.714;2022-09-16T05:43:53;-24443.34;;;22.55;nan
7105;BME280;3594;42.152;24.714;2022-09-16T05:46:22;-24455.78;;;23.01;nan
7105;BME280;3594;42.152;24.714;2022-09-16T05:48:48;-24462.00;;;23.23;nan
7105;BME280;3594;42.152;24.714;2022-09-16T05:51:16;-24467.38;;;23.43;nan
7105;BME280;3594;42.152;24.714;2022-09-16T05:53:42;-24466.97;;;23.42;nan
7105;BME280;3594;42.152;24.714;2022-09-16T05:56:13;-24474.28;;;23.68;nan
7105;BME280;3594;42.152;24.714;2022-09-16T05:58:39;-24478.69;;;23.85;nan
7105;BME280;3594;42.152;24.714;2022-09-16T06:01:08;-24479.66;;;23.88;nan
7105;BME280;3594;42.152;24.714;2022-09-16T06:03:35;-24488.78;;;24.22;nan
7105;BME280;3594;42.152;24.714;2022-09-16T06:08:30;-24502.16;;;24.71;nan
7105;BME280;3594;42.152;24.714;2022-09-16T06:10:56;-24498.97;;;24.59;nan
7105;BME280;3594;42.152;24.714;2022-09-16T06:13:21;-24496.78;;;24.51;nan
7105;BME280;3594;42.152;24.714;2022-09-16T06:15:51;-24485.88;;;24.11;nan
7105;BME280;3594;42.152;24.714;2022-09-16T06:18:19;-24468.34;;;23.47;nan
7105;BME280;3594;42.152;24.714;2022-09-16T06:20:45;-24461.03;;;23.20;nan
7105;BME280;3594;42.152;24.714;2022-09-16T06:23:11;-24470.16;;;23.53;nan
7105;BME280;3594;42.152;24.714;2022-09-16T06:25:37;-24476.91;;;23.78;nan
7105;BME280;3594;42.152;24.714;2022-09-16T06:28:02;-24469.88;;;23.52;nan
7105;BME280;3594;42.152;24.714;2022-09-16T06:30:28;-24481.31;;;23.94;nan
7105;BME280;3594;42.152;24.714;2022-09-16T06:32:54;-24484.22;;;24.05;nan
7105;BME280;3594;42.152;24.714;2022-09-16T06:35:19;-24475.94;;;23.74;nan
7105;BME280;3594;42.152;24.714;2022-09-16T06:37:45;-24480.09;;;23.90;nan
7105;BME280;3594;42.152;24.714;2022-09-16T06:40:10;-24483.53;;;24.02;nan
7105;BME280;3594;42.152;24.714;2022-09-16T06:42:36;-24493.59;;;24.39;nan
7105;BME280;3594;42.152;24.714;2022-09-16T06:45:02;-24509.72;;;24.98;nan
7105;BME280;3594;42.152;24.714;2022-09-16T06:47:29;-24519.34;;;25.34;nan
7105;BME280;3594;42.152;24.714;2022-09-16T06:50:00;-24525.97;;;25.58;nan
7105;BME280;3594;42.152;24.714;2022-09-16T06:52:26;-24525.00;;;25.55;nan
7105;BME280;3594;42.152;24.714;2022-09-16T06:54:52;-24515.63;;;25.20;nan
7105;BME280;3594;42.152;24.714;2022-09-16T06:57:18;-24512.63;;;25.09;nan
7105;BME280;3594;42.152;24.714;2022-09-16T06:59:47;-24522.94;;;25.47;nan
7105;BME280;3594;42.152;24.714;2022-09-16T07:02:13;-24520.31;;;25.37;nan
7105;BME280;3594;42.152;24.714;2022-09-16T07:04:38;-24517.97;;;25.29;nan
7105;BME280;3594;42.152;24.714;2022-09-16T07:07:04;-24538.47;;;26.04;nan
7105;BME280;3594;42.152;24.714;2022-09-16T07:09:30;-24533.94;;;25.87;nan
7105;BME280;3594;42.152;24.714;2022-09-16T07:11:56;-24533.25;;;25.85;nan
7105;BME280;3594;42.152;24.714;2022-09-16T07:14:24;-24532.84;;;25.83;nan
7105;BME280;3594;42.152;24.714;2022-09-16T07:16:49;-24546.31;;;26.33;nan
7105;BME280;3594;42.152;24.714;2022-09-16T07:19:15;-24546.72;;;26.34;nan
7105;BME280;3594;42.152;24.714;2022-09-16T07:21:40;-24553.84;;;26.61;nan
7105;BME280;3594;42.152;24.714;2022-09-16T07:24:06;-24556.75;;;26.71;nan
7105;BME280;3594;42.152;24.714;2022-09-16T07:26:33;-24566.63;;;27.08;nan
7105;BME280;3594;42.152;24.714;2022-09-16T07:29:00;-24566.63;;;27.08;nan
7105;BME280;3594;42.152;24.714;2022-09-16T07:31:29;-24556.31;;;26.70;nan
7105;BME280;3594;42.152;24.714;2022-09-16T07:33:56;-24566.75;;;27.08;nan
7105;BME280;3594;42.152;24.714;2022-09-16T07:36:26;-24568.81;;;27.16;nan
7105;BME280;3594;42.152;24.714;2022-09-16T07:38:53;-24577.31;;;27.47;nan
7105;BME280;3594;42.152;24.714;2022-09-16T07:41:21;-24582.81;;;27.67;nan
7105;BME280;3594;42.152;24.714;2022-09-16T07:43:48;-24591.44;;;27.99;nan
7105;BME280;3594;42.152;24.714;2022-09-16T07:46:15;-24599.09;;;28.28;nan
7105;BME280;3594;42.152;24.714;2022-09-16T07:48:41;-24608.66;;;28.63;nan
7105;BME280;3594;42.152;24.714;2022-09-16T07:51:09;-24610.31;;;28.69;nan
7105;BME280;3594;42.152;24.714;2022-09-16T07:53:36;-24612.09;;;28.76;nan
7105;BME280;3594;42.152;24.714;2022-09-16T07:56:06;-24620.69;;;29.08;nan
7105;BME280;3594;42.152;24.714;2022-09-16T07:58:32;-24622.75;;;29.15;nan
7105;BME280;3594;42.152;24.714;2022-09-16T08:00:58;-24632.59;;;29.52;nan
7105;BME280;3594;42.152;24.714;2022-09-16T08:03:24;-24630.66;;;29.45;nan
7105;BME280;3594;42.152;24.714;2022-09-16T08:05:49;-24625.75;;;29.26;nan
7105;BME280;3594;42.152;24.714;2022-09-16T08:08:15;-24623.44;;;29.18;nan
7105;BME280;3594;42.152;24.714;2022-09-16T08:10:40;-24621.66;;;29.11;nan
7105;BME280;3594;42.152;24.714;2022-09-16T08:13:07;-24623.69;;;29.19;nan
7105;BME280;3594;42.152;24.714;2022-09-16T08:15:32;-24634.91;;;29.60;nan
7105;BME280;3594;42.152;24.714;2022-09-16T08:17:58;-24643.63;;;29.93;nan
7105;BME280;3594;42.152;24.714;2022-09-16T08:20:24;-24657.53;;;30.44;nan
7105;BME280;3594;42.152;24.714;2022-09-16T08:22:50;-24650.31;;;30.17;nan
7105;BME280;3594;42.152;24.714;2022-09-16T08:25:16;-24652.91;;;30.27;nan
7105;BME280;3594;42.152;24.714;2022-09-16T08:27:41;-24665.16;;;30.73;nan
7105;BME280;3594;42.152;24.714;2022-09-16T08:30:08;-24683.94;;;31.42;nan
7105;BME280;3594;42.152;24.714;2022-09-16T08:32:34;-24672.94;;;31.01;nan
7105;BME280;3594;42.152;24.714;2022-09-16T08:34:59;-24666.41;;;30.77;nan
7105;BME280;3594;42.152;24.714;2022-09-16T08:37:25;-24675.78;;;31.12;nan
7105;BME280;3594;42.152;24.714;2022-09-16T08:39:51;-24686.25;;;31.51;nan
7105;BME280;3594;42.152;24.714;2022-09-16T08:50:25;-24673.06;;;31.02;nan
7105;BME280;3594;42.152;24.714;2022-09-16T08:52:56;-24687.22;;;31.54;nan
7105;BME280;3594;42.152;24.714;2022-09-16T08:55:36;-24691.28;;;31.70;nan
7105;BME280;3594;42.152;24.714;2022-09-16T08:58:15;-24685.59;;;31.48;nan
7105;BME280;3594;42.152;24.714;2022-09-16T09:00:43;-24692.66;;;31.75;nan
7105;BME280;3594;42.152;24.714;2022-09-16T09:03:37;-24689.41;;;31.63;nan
7105;BME280;3594;42.152;24.714;2022-09-16T09:06:13;-24692.38;;;31.74;nan
7105;BME280;3594;42.152;24.714;2022-09-16T09:14:50;-24704.06;;;32.17;nan
7105;BME280;3594;42.152;24.714;2022-09-16T09:25:17;-24701.22;;;32.07;nan
7105;BME280;3594;42.152;24.714;2022-09-16T09:30:26;-24706.09;;;32.25;nan
7105;BME280;3594;42.152;24.714;2022-09-16T09:33:05;-24725.38;;;32.97;nan
7105;BME280;3594;42.152;24.714;2022-09-16T09:38:40;-24736.47;;;33.38;nan
7105;BME280;3594;42.152;24.714;2022-09-16T09:41:16;-24733.34;;;33.26;nan
7105;BME280;3594;42.152;24.714;2022-09-16T09:43:56;-24741.22;;;33.56;nan
7105;BME280;3594;42.152;24.714;2022-09-16T09:46:36;-24744.47;;;33.68;nan
7105;BME280;3594;42.152;24.714;2022-09-16T09:49:27;-24732.94;;;33.25;nan
7105;BME280;3594;42.152;24.714;2022-09-16T09:52:04;-24705.81;;;32.24;nan
7105;BME280;3594;42.152;24.714;2022-09-16T09:54:36;-24710.56;;;32.41;nan
7105;BME280;3594;42.152;24.714;2022-09-16T09:57:06;-24715.47;;;32.60;nan
7105;BME280;3594;42.152;24.714;2022-09-16T09:59:51;-24708.28;;;32.33;nan
7105;BME280;3594;42.152;24.714;2022-09-16T10:02:21;-24708.13;;;32.32;nan
7105;BME280;3594;42.152;24.714;2022-09-16T10:04:47;-24709.63;;;32.38;nan
7105;BME280;3594;42.152;24.714;2022-09-16T10:07:15;-24692.78;;;31.75;nan
7105;BME280;3594;42.152;24.714;2022-09-16T10:09:51;-24704.19;;;32.18;nan
7105;BME280;3594;42.152;24.714;2022-09-16T10:12:32;-24704.59;;;32.19;nan
7105;BME280;3594;42.152;24.714;2022-09-16T10:14:58;-24693.47;;;31.78;nan
7105;BME280;3594;42.152;24.714;2022-09-16T10:17:25;-24696.03;;;31.87;nan
7105;BME280;3594;42.152;24.714;2022-09-16T10:20:00;-24686.94;;;31.53;nan
7105;BME280;3594;42.152;24.714;2022-09-16T10:22:29;-24692.38;;;31.74;nan
7105;BME280;3594;42.152;24.714;2022-09-16T10:25:01;-24689.66;;;31.64;nan
7105;BME280;3594;42.152;24.714;2022-09-16T10:27:33;-24685.03;;;31.46;nan
7105;BME280;3594;42.152;24.714;2022-09-16T10:30:11;-24685.31;;;31.47;nan
7105;BME280;3594;42.152;24.714;2022-09-16T10:32:55;-24687.91;;;31.57;nan
7105;BME280;3594;42.152;24.714;2022-09-16T10:35:28;-24692.94;;;31.76;nan
7105;BME280;3594;42.152;24.714;2022-09-16T10:38:00;-24705.69;;;32.23;nan
7105;BME280;3594;42.152;24.714;2022-09-16T10:40:26;-24703.78;;;32.16;nan
7105;BME280;3594;42.152;24.714;2022-09-16T10:42:55;-24693.47;;;31.78;nan
7105;BME280;3594;42.152;24.714;2022-09-16T10:45:29;-24699.16;;;31.99;nan
7105;BME280;3594;42.152;24.714;2022-09-16T10:48:02;-24701.88;;;32.09;nan
7105;BME280;3594;42.152;24.714;2022-09-16T10:50:29;-24712.34;;;32.48;nan
7105;BME280;3594;42.152;24.714;2022-09-16T10:52:55;-24713.44;;;32.52;nan
7105;BME280;3594;42.152;24.714;2022-09-16T10:55:27;-24718.72;;;32.72;nan
7105;BME280;3594;42.152;24.714;2022-09-16T10:58:10;-24714.66;;;32.57;nan
7105;BME280;3594;42.152;24.714;2022-09-16T11:06:38;-24738.63;;;33.46;nan
7105;BME280;3594;42.152;24.714;2022-09-16T11:14:09;-24768.66;;;34.58;nan
7105;BME280;3594;42.152;24.714;2022-09-16T11:25:21;-24784.59;;;35.18;nan
7105;BME280;3594;42.152;24.714;2022-09-16T11:30:59;-24789.19;;;35.35;nan
7105;BME280;3594;42.152;24.714;2022-09-16T11:33:42;-24780.28;;;35.02;nan
7105;BME280;3594;42.152;24.714;2022-09-16T11:36:22;-24788.38;;;35.32;nan
7105;BME280;3594;42.152;24.714;2022-09-16T11:41:54;-24782.31;;;35.10;nan
7105;BME280;3594;42.152;24.714;2022-09-16T11:44:24;-24771.91;;;34.71;nan
7105;BME280;3594;42.152;24.714;2022-09-16T12:00:55;-24789.59;;;35.37;nan
7105;BME280;3594;42.152;24.714;2022-09-16T12:03:30;-24794.97;;;35.57;nan
7105;BME280;3594;42.152;24.714;2022-09-16T12:06:18;-24803.88;;;35.91;nan
7105;BME280;3594;42.152;24.714;2022-09-16T12:11:30;-24811.69;;;36.20;nan
7105;BME280;3594;42.152;24.714;2022-09-16T12:14:15;-24799.31;;;35.73;nan
7105;BME280;3594;42.152;24.714;2022-09-16T12:16:46;-24784.88;;;35.19;nan
7105;BME280;3594;42.152;24.714;2022-09-16T12:19:22;-24770.28;;;34.65;nan
7105;BME280;3594;42.152;24.714;2022-09-16T12:21:55;-24785.28;;;35.21;nan
7105;BME280;3594;42.152;24.714;2022-09-16T12:24:30;-24793.38;;;35.51;nan
7105;BME280;3594;42.152;24.714;2022-09-16T12:29:58;-24793.38;;;35.51;nan
7105;BME280;3594;42.152;24.714;2022-09-16T12:35:18;-24750.16;;;33.89;nan
7105;BME280;3594;42.152;24.714;2022-09-16T12:37:49;-24731.59;;;33.20;nan
7105;BME280;3594;42.152;24.714;2022-09-16T12:40:27;-24721.69;;;32.83;nan
7105;BME280;3594;42.152;24.714;2022-09-16T12:48:43;-24711.13;;;32.43;nan
7105;BME280;3594;42.152;24.714;2022-09-16T12:56:46;-24702.97;;;32.13;nan
7105;BME280;3594;42.152;24.714;2022-09-16T13:02:14;-24690.63;;;31.67;nan
7105;BME280;3594;42.152;24.714;2022-09-16T13:04:50;-24698.22;;;31.95;nan
7105;BME280;3594;42.152;24.714;2022-09-16T13:07:23;-24698.22;;;31.95;nan
7105;BME280;3594;42.152;24.714;2022-09-16T13:10:22;-24689.13;;;31.62;nan
7105;BME280;3594;42.152;24.714;2022-09-16T13:12:53;-24693.75;;;31.79;nan
7105;BME280;3594;42.152;24.714;2022-09-16T13:15:32;-24676.75;;;31.16;nan
7105;BME280;3594;42.152;24.714;2022-09-16T13:20:48;-24684.34;;;31.44;nan
7105;BME280;3594;42.152;24.714;2022-09-16T13:25:57;-24676.88;;;31.16;nan
7105;BME280;3594;42.152;24.714;2022-09-16T13:28:36;-24682.31;;;31.36;nan
7105;BME280;3594;42.152;24.714;2022-09-16T13:33:38;-24687.91;;;31.57;nan
7105;BME280;3594;42.152;24.714;2022-09-16T13:36:30;-24680.81;;;31.31;nan
7105;BME280;3594;42.152;24.714;2022-09-16T13:38:58;-24668.72;;;30.86;nan
7105;BME280;3594;42.152;24.714;2022-09-16T13:41:42;-24677.41;;;31.18;nan
7105;BME280;3594;42.152;24.714;2022-09-16T13:44:39;-24677.28;;;31.18;nan
7105;BME280;3594;42.152;24.714;2022-09-16T13:49:33;-24674.44;;;31.07;nan
7105;BME280;3594;42.152;24.714;2022-09-16T13:52:08;-24675.53;;;31.11;nan
7105;BME280;3594;42.152;24.714;2022-09-16T13:54:41;-24670.06;;;30.91;nan
7105;BME280;3594;42.152;24.714;2022-09-16T14:13:21;-24660.69;;;30.56;nan
7105;BME280;3594;42.152;24.714;2022-09-16T14:15:50;-24652.78;;;30.26;nan
7105;BME280;3594;42.152;24.714;2022-09-16T14:18:23;-24649.09;;;30.13;nan
7105;BME280;3594;42.152;24.714;2022-09-16T14:21:20;-24655.78;;;30.38;nan
7105;BME280;3594;42.152;24.714;2022-09-16T14:23:46;-24647.31;;;30.06;nan
7105;BME280;3594;42.152;24.714;2022-09-16T14:26:17;-24650.72;;;30.19;nan
7105;BME280;3594;42.152;24.714;2022-09-16T14:28:43;-24639.81;;;29.78;nan
7105;BME280;3594;42.152;24.714;2022-09-16T14:31:13;-24646.22;;;30.02;nan
7105;BME280;3594;42.152;24.714;2022-09-16T14:33:52;-24650.88;;;30.19;nan
7105;BME280;3594;42.152;24.714;2022-09-16T14:36:22;-24648.69;;;30.11;nan
7105;BME280;3594;42.152;24.714;2022-09-16T14:38:59;-24650.19;;;30.17;nan
7105;BME280;3594;42.152;24.714;2022-09-16T14:41:35;-24644.19;;;29.95;nan
7105;BME280;3594;42.152;24.714;2022-09-16T14:46:46;-24654.69;;;30.34;nan
7105;BME280;3594;42.152;24.714;2022-09-16T14:49:14;-24650.03;;;30.16;nan
7105;BME280;3594;42.152;24.714;2022-09-16T14:51:50;-24650.44;;;30.18;nan
7105;BME280;3594;42.152;24.714;2022-09-16T14:54:21;-24653.59;;;30.29;nan
7105;BME280;3594;42.152;24.714;2022-09-16T14:59:22;-24652.50;;;30.25;nan
7105;BME280;3594;42.152;24.714;2022-09-16T15:01:49;-24651.28;;;30.21;nan
7105;BME280;3594;42.152;24.714;2022-09-16T15:04:22;-24655.22;;;30.36;nan
7105;BME280;3594;42.152;24.714;2022-09-16T15:06:53;-24658.63;;;30.48;nan
7105;BME280;3594;42.152;24.714;2022-09-16T15:12:20;-24657.13;;;30.43;nan
7105;BME280;3594;42.152;24.714;2022-09-16T15:14:47;-24657.41;;;30.44;nan
7105;BME280;3594;42.152;24.714;2022-09-16T15:17:17;-24642.97;;;29.90;nan
7105;BME280;3594;42.152;24.714;2022-09-16T15:19:48;-24644.19;;;29.95;nan
7105;BME280;3594;42.152;24.714;2022-09-16T15:22:15;-24633.41;;;29.55;nan
7105;BME280;3594;42.152;24.714;2022-09-16T15:24:41;-24634.34;;;29.58;nan
7105;BME280;3594;42.152;24.714;2022-09-16T15:27:07;-24639.00;;;29.75;nan
7105;BME280;3594;42.152;24.714;2022-09-16T15:29:45;-24635.72;;;29.63;nan
7105;BME280;3594;42.152;24.714;2022-09-16T15:32:19;-24622.06;;;29.13;nan
7105;BME280;3594;42.152;24.714;2022-09-16T15:34:47;-24627.66;;;29.33;nan
7105;BME280;3594;42.152;24.714;2022-09-16T15:37:31;-24624.94;;;29.23;nan
7105;BME280;3594;42.152;24.714;2022-09-16T15:45:32;-24615.09;;;28.87;nan
7105;BME280;3594;42.152;24.714;2022-09-16T15:48:05;-24613.59;;;28.81;nan
7105;BME280;3594;42.152;24.714;2022-09-16T15:50:40;-24607.16;;;28.58;nan
7105;BME280;3594;42.152;24.714;2022-09-16T15:53:16;-24607.03;;;28.57;nan
7105;BME280;3594;42.152;24.714;2022-09-16T15:55:57;-24611.97;;;28.75;nan
7105;BME280;3594;42.152;24.714;2022-09-16T15:58:41;-24607.84;;;28.60;nan
7105;BME280;3594;42.152;24.714;2022-09-16T16:06:09;-24600.88;;;28.34;nan
7105;BME280;3594;42.152;24.714;2022-09-16T16:08:43;-24602.94;;;28.42;nan
7105;BME280;3594;42.152;24.714;2022-09-16T16:11:12;-24588.56;;;27.89;nan
7105;BME280;3594;42.152;24.714;2022-09-16T16:13:38;-24592.78;;;28.04;nan
7105;BME280;3594;42.152;24.714;2022-09-16T16:16:04;-24595.69;;;28.15;nan
7105;BME280;3594;42.152;24.714;2022-09-16T16:18:33;-24592.53;;;28.03;nan
7105;BME280;3594;42.152;24.714;2022-09-16T16:21:03;-24590.19;;;27.95;nan
7105;BME280;3594;42.152;24.714;2022-09-16T16:23:29;-24583.63;;;27.71;nan
7105;BME280;3594;42.152;24.714;2022-09-16T16:25:54;-24588.28;;;27.88;nan
7105;BME280;3594;42.152;24.714;2022-09-16T16:28:20;-24586.63;;;27.82;nan
7105;BME280;3594;42.152;24.714;2022-09-16T16:30:46;-24584.16;;;27.73;nan
7105;BME280;3594;42.152;24.714;2022-09-16T16:33:11;-24574.16;;;27.36;nan
7105;BME280;3594;42.152;24.714;2022-09-16T16:35:37;-24578.56;;;27.52;nan
7105;BME280;3594;42.152;24.714;2022-09-16T16:38:02;-24576.91;;;27.46;nan
7105;BME280;3594;42.152;24.714;2022-09-16T16:40:27;-24574.56;;;27.37;nan
7105;BME280;3594;42.152;24.714;2022-09-16T16:42:53;-24569.22;;;27.17;nan
7105;BME280;3594;42.152;24.714;2022-09-16T16:45:18;-24575.81;;;27.42;nan
7105;BME280;3594;42.152;24.714;2022-09-16T16:47:45;-24571.84;;;27.27;nan
7105;BME280;3594;42.152;24.714;2022-09-16T16:50:11;-24561.13;;;26.88;nan
7105;BME280;3594;42.152;24.714;2022-09-16T16:52:37;-24570.47;;;27.22;nan
7105;BME280;3594;42.152;24.714;2022-09-16T16:55:03;-24568.00;;;27.13;nan
7105;BME280;3594;42.152;24.714;2022-09-16T16:57:28;-24563.75;;;26.97;nan
7105;BME280;3594;42.152;24.714;2022-09-16T16:59:54;-24565.66;;;27.04;nan
7105;BME280;3594;42.152;24.714;2022-09-16T17:02:19;-24563.47;;;26.96;nan
7105;BME280;3594;42.152;24.714;2022-09-16T17:04:45;-24564.28;;;26.99;nan
7105;BME280;3594;42.152;24.714;2022-09-16T17:07:10;-24564.84;;;27.01;nan
7105;BME280;3594;42.152;24.714;2022-09-16T17:09:36;-24563.06;;;26.95;nan
7105;BME280;3594;42.152;24.714;2022-09-16T17:12:02;-24557.28;;;26.73;nan
7105;BME280;3594;42.152;24.714;2022-09-16T17:14:30;-24560.72;;;26.86;nan
7105;BME280;3594;42.152;24.714;2022-09-16T17:16:56;-24548.91;;;26.43;nan
7105;BME280;3594;42.152;24.714;2022-09-16T17:19:24;-24548.22;;;26.40;nan
7105;BME280;3594;42.152;24.714;2022-09-16T17:21:50;-24552.47;;;26.56;nan
7105;BME280;3594;42.152;24.714;2022-09-16T17:24:17;-24543.41;;;26.22;nan
7105;BME280;3594;42.152;24.714;2022-09-16T17:26:43;-24543.84;;;26.24;nan
7105;BME280;3594;42.152;24.714;2022-09-16T17:29:08;-24544.94;;;26.28;nan
7105;BME280;3594;42.152;24.714;2022-09-16T17:31:35;-24540.81;;;26.13;nan
7105;BME280;3594;42.152;24.714;2022-09-16T17:34:05;-24545.47;;;26.30;nan